Alts de Jayuya, Puerto Rico
Current Conditions -  °F | °C
As of 3:50 AM on Thursday 23 Oct 2014 (Local Time) from TJBQ Reporting Station
Clear Clear  
Wind Chill: 23°   Ceiling: Unl
Heat Index: 23°   Visibility: 10mi
Dew Point: 22°   Wind: 5mph
Humidity: 94%   Direction: 140°SE
Pressure: 29.92"   Gusts: NA
Location:  18.2205°N, 66.6046°W
Report Text: TJBQ 230750Z 14004KT 10SM SKC 23/22 A2992 RMK RWY 08- ATIS Y
Loading
Personal Weather Stations






























Interactive Weather Map
Tropical Storm Tracking
New forecast layout! Learn more

10-Day Weather Forecast

Advertisements
Track Severe Weather on mobile